Time;durP1;ratioP1;P1;durP2;ratioP2;P2;SDS_P1;SDS_P2;PMS_P1;PMS_P2;Temp;Humidity;BMP_temperature;BMP_pressure;BME280_temperature;BME280_humidity;BME280_pressure;Samples;Min_cycle;Max_cycle;Signal;HPM_P1;HPM_P2
2023/09/03 00:00:26;;;;;;;17.52;12.73;;;;;;;;;;5094981;28;20032;-77
2023/09/03 00:02:53;;;;;;;14.10;12.40;;;;;;;;;;5096807;28;20075;-77
2023/09/03 00:05:19;;;;;;;17.15;13.52;;;;;;;;;;5095930;28;20044;-77
2023/09/03 00:07:45;;;;;;;16.80;12.75;;;;;;;;;;5094744;28;20434;-77
2023/09/03 00:10:12;;;;;;;15.50;12.68;;;;;;;;;;5077646;28;20056;-78
2023/09/03 00:12:38;;;;;;;16.20;12.80;;;;;;;;;;5094829;28;20048;-78
2023/09/03 00:15:04;;;;;;;17.52;13.68;;;;;;;;;;5094079;28;20046;-77
2023/09/03 00:17:30;;;;;;;14.85;12.88;;;;;;;;;;5094739;28;20438;-77
2023/09/03 00:19:56;;;;;;;14.40;12.70;;;;;;;;;;5094180;28;20361;-78
2023/09/03 00:22:22;;;;;;;15.75;13.13;;;;;;;;;;5095507;28;20133;-78
2023/09/03 00:24:49;;;;;;;15.93;12.60;;;;;;;;;;5094727;28;20131;-78
2023/09/03 00:27:15;;;;;;;15.93;12.25;;;;;;;;;;5092960;28;20050;-77
2023/09/03 00:29:41;;;;;;;16.48;12.40;;;;;;;;;;5094154;28;20089;-78
2023/09/03 00:32:07;;;;;;;15.20;13.27;;;;;;;;;;5094004;28;20044;-77
2023/09/03 00:34:34;;;;;;;15.30;13.77;;;;;;;;;;5093784;28;20052;-77
2023/09/03 00:37:00;;;;;;;15.05;13.40;;;;;;;;;;5093492;28;20040;-77
2023/09/03 00:39:26;;;;;;;17.17;14.15;;;;;;;;;;5093562;28;20100;-77
2023/09/03 00:41:52;;;;;;;19.63;13.70;;;;;;;;;;5077193;28;20047;-77
2023/09/03 00:44:18;;;;;;;14.68;13.18;;;;;;;;;;5093907;28;20036;-77
2023/09/03 00:46:44;;;;;;;17.30;13.70;;;;;;;;;;5093693;28;20044;-78
2023/09/03 00:49:12;;;;;;;16.17;14.45;;;;;;;;;;5073474;28;20044;-78
2023/09/03 00:51:38;;;;;;;17.35;14.18;;;;;;;;;;5080973;28;20489;-77
2023/09/03 00:54:05;;;;;;;16.75;13.82;;;;;;;;;;5088198;28;20036;-77
2023/09/03 00:56:31;;;;;;;14.40;12.90;;;;;;;;;;5094877;28;20036;-78
2023/09/03 00:58:57;;;;;;;15.55;13.27;;;;;;;;;;5093204;28;20044;-78
2023/09/03 01:01:23;;;;;;;14.45;12.38;;;;;;;;;;5093002;28;20083;-77
2023/09/03 01:03:49;;;;;;;12.85;11.55;;;;;;;;;;5093399;28;20543;-78
2023/09/03 01:06:15;;;;;;;14.25;12.80;;;;;;;;;;5095037;28;20117;-77
2023/09/03 01:08:42;;;;;;;14.85;11.68;;;;;;;;;;5094375;28;20087;-78
2023/09/03 01:11:08;;;;;;;13.57;11.65;;;;;;;;;;5092912;28;20044;-78
2023/09/03 01:13:40;;;;;;;14.10;10.77;;;;;;;;;;5076558;28;20028;-77
2023/09/03 01:16:09;;;;;;;14.05;11.15;;;;;;;;;;5093770;28;20090;-77
2023/09/03 01:18:38;;;;;;;15.75;11.98;;;;;;;;;;5093377;28;20040;-77
2023/09/03 01:21:26;;;;;;;13.93;11.55;;;;;;;;;;5093627;28;20135;-78
2023/09/03 01:23:55;;;;;;;12.52;10.02;;;;;;;;;;5094668;28;20080;-78
2023/09/03 01:26:35;;;;;;;10.70;9.52;;;;;;;;;;5094573;28;20044;-78
2023/09/03 01:29:01;;;;;;;11.85;10.73;;;;;;;;;;5093542;28;20075;-78
2023/09/03 01:31:28;;;;;;;13.60;10.50;;;;;;;;;;5076561;28;20048;-78
2023/09/03 01:34:02;;;;;;;13.45;10.52;;;;;;;;;;5093006;28;20036;-78
2023/09/03 01:36:29;;;;;;;12.40;10.43;;;;;;;;;;5093568;28;20127;-78
2023/09/03 01:38:55;;;;;;;12.95;10.60;;;;;;;;;;5094331;28;20069;-78
2023/09/03 01:41:21;;;;;;;13.00;10.30;;;;;;;;;;5076443;28;20036;-78
2023/09/03 01:43:47;;;;;;;11.02;9.82;;;;;;;;;;5093928;28;20119;-77
2023/09/03 01:46:35;;;;;;;12.30;10.25;;;;;;;;;;5097375;28;20036;-75
2023/09/03 01:49:04;;;;;;;12.52;11.23;;;;;;;;;;5097476;28;20180;-77
2023/09/03 01:51:38;;;;;;;15.80;11.63;;;;;;;;;;5093392;28;20389;-77
2023/09/03 01:54:10;;;;;;;12.73;10.43;;;;;;;;;;5093672;28;20412;-77
2023/09/03 01:56:39;;;;;;;10.77;9.68;;;;;;;;;;5093028;28;20043;-78
2023/09/03 01:59:29;;;;;;;10.50;9.40;;;;;;;;;;5092445;28;20040;-78
2023/09/03 02:01:55;;;;;;;12.23;10.05;;;;;;;;;;5048290;28;20052;-78
2023/09/03 02:04:21;;;;;;;12.02;9.68;;;;;;;;;;5090997;28;20172;-76
2023/09/03 02:06:47;;;;;;;10.88;9.23;;;;;;;;;;5092615;28;20036;-77
2023/09/03 02:09:14;;;;;;;10.52;9.50;;;;;;;;;;5092445;28;20063;-77
2023/09/03 02:11:40;;;;;;;10.48;9.18;;;;;;;;;;5092718;28;20097;-77
2023/09/03 02:14:06;;;;;;;11.85;9.68;;;;;;;;;;5093819;28;20047;-77
2023/09/03 02:16:32;;;;;;;12.05;10.15;;;;;;;;;;5092464;28;20052;-77
2023/09/03 02:18:58;;;;;;;14.90;9.88;;;;;;;;;;5091592;28;20040;-78
2023/09/03 02:21:24;;;;;;;13.60;10.15;;;;;;;;;;5092296;28;20054;-77
2023/09/03 02:23:50;;;;;;;11.95;9.38;;;;;;;;;;5093364;28;20380;-76
2023/09/03 02:26:16;;;;;;;11.30;10.20;;;;;;;;;;5091837;28;20082;-77
2023/09/03 02:28:42;;;;;;;11.80;10.60;;;;;;;;;;5081083;28;20389;-77
2023/09/03 02:31:08;;;;;;;11.63;10.43;;;;;;;;;;5092950;28;20135;-78
2023/09/03 02:33:34;;;;;;;13.40;9.98;;;;;;;;;;5082281;28;20040;-78
2023/09/03 02:36:00;;;;;;;11.90;10.00;;;;;;;;;;5070385;28;20051;-77
2023/09/03 02:38:26;;;;;;;11.30;10.07;;;;;;;;;;5074631;28;20035;-78
2023/09/03 02:40:52;;;;;;;12.05;9.93;;;;;;;;;;5092125;28;20129;-77
2023/09/03 02:43:18;;;;;;;10.80;9.70;;;;;;;;;;5091850;28;20478;-78
2023/09/03 02:45:44;;;;;;;11.68;9.85;;;;;;;;;;5092431;28;20484;-78
2023/09/03 02:48:11;;;;;;;12.43;11.18;;;;;;;;;;5092069;28;20112;-76
2023/09/03 02:50:38;;;;;;;11.68;10.48;;;;;;;;;;5092068;28;20036;-76
2023/09/03 02:53:07;;;;;;;11.90;10.70;;;;;;;;;;5091894;28;20043;-76
2023/09/03 02:55:34;;;;;;;11.82;10.55;;;;;;;;;;5092776;28;20038;-77
2023/09/03 02:58:00;;;;;;;11.65;10.45;;;;;;;;;;5091413;28;20040;-77
2023/09/03 03:00:27;;;;;;;11.27;10.07;;;;;;;;;;5074325;28;20065;-77
2023/09/03 03:02:54;;;;;;;12.85;10.43;;;;;;;;;;5091497;28;20050;-78
2023/09/03 03:05:20;;;;;;;11.13;9.88;;;;;;;;;;5091862;28;20040;-77
2023/09/03 03:07:46;;;;;;;11.98;10.75;;;;;;;;;;5091339;28;20071;-76
2023/09/03 03:10:12;;;;;;;12.52;11.20;;;;;;;;;;5074306;28;20044;-77
2023/09/03 03:12:38;;;;;;;13.18;11.40;;;;;;;;;;5074738;28;20067;-77
2023/09/03 03:15:05;;;;;;;12.63;11.32;;;;;;;;;;5091590;28;20419;-77
2023/09/03 03:17:31;;;;;;;12.77;11.48;;;;;;;;;;5091244;28;20539;-78
2023/09/03 03:19:57;;;;;;;13.27;11.82;;;;;;;;;;5091657;28;20039;-77
2023/09/03 03:22:23;;;;;;;13.35;12.05;;;;;;;;;;5092913;28;20369;-78
2023/09/03 03:24:49;;;;;;;13.15;11.75;;;;;;;;;;5091012;28;20051;-78
2023/09/03 03:27:15;;;;;;;14.48;12.75;;;;;;;;;;5083318;28;20163;-78
2023/09/03 03:29:41;;;;;;;14.25;11.35;;;;;;;;;;5088354;28;20164;-78
2023/09/03 03:32:07;;;;;;;12.80;11.48;;;;;;;;;;5092806;28;20052;-77
2023/09/03 03:34:34;;;;;;;12.93;11.50;;;;;;;;;;5090348;28;20051;-77
2023/09/03 03:37:00;;;;;;;13.50;11.82;;;;;;;;;;5092320;28;20085;-77
2023/09/03 03:39:26;;;;;;;13.73;12.32;;;;;;;;;;5085618;28;20124;-77
2023/09/03 03:41:52;;;;;;;15.00;13.13;;;;;;;;;;5090503;28;20385;-78
2023/09/03 03:44:18;;;;;;;15.18;12.43;;;;;;;;;;5090845;28;20028;-76
2023/09/03 03:46:44;;;;;;;13.93;11.35;;;;;;;;;;5092443;28;20458;-77
2023/09/03 03:49:10;;;;;;;13.65;12.25;;;;;;;;;;5091899;28;20044;-77
2023/09/03 03:51:36;;;;;;;16.20;12.63;;;;;;;;;;5090846;28;20050;-77
2023/09/03 03:54:04;;;;;;;13.80;12.23;;;;;;;;;;5091667;28;20040;-77
2023/09/03 03:56:30;;;;;;;15.63;13.13;;;;;;;;;;5074134;28;20477;-77
2023/09/03 03:58:56;;;;;;;14.40;12.50;;;;;;;;;;5092022;28;20051;-76
2023/09/03 04:01:26;;;;;;;13.77;12.38;;;;;;;;;;5089976;28;20048;-77
2023/09/03 04:03:53;;;;;;;13.88;12.48;;;;;;;;;;5090287;28;20392;-77
2023/09/03 04:06:19;;;;;;;12.73;11.43;;;;;;;;;;5091563;28;20055;-77
2023/09/03 04:08:46;;;;;;;14.10;12.60;;;;;;;;;;5091634;28;20059;-77
2023/09/03 04:11:18;;;;;;;14.85;11.85;;;;;;;;;;5090315;28;20059;-77
2023/09/03 04:13:44;;;;;;;13.90;11.77;;;;;;;;;;5091857;28;20048;-77
2023/09/03 04:16:11;;;;;;;13.63;11.45;;;;;;;;;;5090245;28;20135;-78
2023/09/03 04:18:38;;;;;;;14.13;12.32;;;;;;;;;;5091481;28;20119;-78
2023/09/03 04:21:04;;;;;;;14.95;12.10;;;;;;;;;;5090685;28;20047;-78
2023/09/03 04:23:30;;;;;;;14.82;12.65;;;;;;;;;;5091380;28;20181;-78
2023/09/03 04:25:57;;;;;;;14.57;12.02;;;;;;;;;;5090347;28;20052;-77
2023/09/03 04:28:24;;;;;;;14.85;12.75;;;;;;;;;;5075787;28;20036;-78
2023/09/03 04:30:54;;;;;;;14.73;12.02;;;;;;;;;;5090095;28;20078;-77
2023/09/03 04:33:20;;;;;;;14.57;12.65;;;;;;;;;;5089611;28;20044;-78
2023/09/03 04:35:46;;;;;;;15.82;12.05;;;;;;;;;;5089813;28;20097;-78
2023/09/03 04:38:12;;;;;;;13.45;11.95;;;;;;;;;;5090236;28;20097;-77
2023/09/03 04:40:39;;;;;;;14.00;12.48;;;;;;;;;;5089554;28;20457;-77
2023/09/03 04:43:05;;;;;;;15.18;12.50;;;;;;;;;;5090076;28;20131;-78
2023/09/03 04:45:31;;;;;;;14.07;12.57;;;;;;;;;;5088424;28;20032;-78
2023/09/03 04:48:01;;;;;;;15.43;13.02;;;;;;;;;;5092378;28;20055;-78
2023/09/03 04:50:27;;;;;;;16.77;13.13;;;;;;;;;;5093463;28;20098;-78
2023/09/03 04:52:57;;;;;;;13.85;11.80;;;;;;;;;;5095224;28;20044;-77
2023/09/03 04:55:23;;;;;;;14.07;12.15;;;;;;;;;;5093044;28;20032;-78
2023/09/03 04:57:49;;;;;;;14.77;12.40;;;;;;;;;;5095128;28;20047;-78
2023/09/03 05:00:15;;;;;;;13.98;12.02;;;;;;;;;;5095056;28;20115;-78
2023/09/03 05:02:42;;;;;;;13.43;12.02;;;;;;;;;;5094963;28;20066;-78
2023/09/03 05:05:08;;;;;;;14.13;12.07;;;;;;;;;;5095035;28;20040;-77
2023/09/03 05:07:34;;;;;;;14.55;12.40;;;;;;;;;;5097128;28;20043;-76
2023/09/03 05:10:00;;;;;;;14.13;12.35;;;;;;;;;;5098745;28;20058;-76
2023/09/03 05:12:26;;;;;;;13.32;11.98;;;;;;;;;;5097803;28;20048;-77
2023/09/03 05:14:53;;;;;;;13.60;12.30;;;;;;;;;;5094283;28;20085;-78
2023/09/03 05:17:20;;;;;;;14.98;12.80;;;;;;;;;;5095436;28;20047;-78
2023/09/03 05:19:46;;;;;;;13.25;11.50;;;;;;;;;;5076942;28;20105;-77
2023/09/03 05:22:12;;;;;;;13.95;12.45;;;;;;;;;;5095021;28;20492;-77
2023/09/03 05:24:38;;;;;;;13.00;11.20;;;;;;;;;;5094062;28;20036;-77
2023/09/03 05:27:04;;;;;;;12.70;11.40;;;;;;;;;;5088380;28;20041;-78
2023/09/03 05:29:30;;;;;;;13.27;11.98;;;;;;;;;;5074659;28;20445;-76
2023/09/03 05:31:56;;;;;;;12.77;11.38;;;;;;;;;;5073311;28;20413;-77
2023/09/03 05:34:23;;;;;;;13.73;12.32;;;;;;;;;;5093050;28;20055;-76
2023/09/03 05:36:50;;;;;;;13.60;11.85;;;;;;;;;;5092369;28;20055;-77
2023/09/03 05:39:16;;;;;;;12.93;11.52;;;;;;;;;;5087660;28;20048;-76
2023/09/03 05:41:42;;;;;;;13.10;11.70;;;;;;;;;;5092622;28;20079;-76
2023/09/03 05:44:11;;;;;;;12.98;11.40;;;;;;;;;;5092537;28;20051;-76
2023/09/03 05:46:37;;;;;;;13.75;10.70;;;;;;;;;;5076512;28;20040;-77
2023/09/03 05:49:03;;;;;;;13.40;11.80;;;;;;;;;;5075367;28;20058;-77
2023/09/03 05:51:29;;;;;;;12.35;10.65;;;;;;;;;;5092476;28;20098;-77
2023/09/03 05:53:55;;;;;;;13.05;11.15;;;;;;;;;;5092145;28;20086;-77
2023/09/03 05:56:21;;;;;;;12.52;11.10;;;;;;;;;;5093742;28;20089;-78
2023/09/03 05:58:47;;;;;;;13.00;11.60;;;;;;;;;;5073991;28;20036;-77
2023/09/03 06:01:14;;;;;;;12.07;10.63;;;;;;;;;;5093903;28;20047;-77
2023/09/03 06:03:40;;;;;;;12.00;10.23;;;;;;;;;;5092284;28;20044;-77
2023/09/03 06:06:07;;;;;;;11.50;9.82;;;;;;;;;;5094210;28;20095;-78
2023/09/03 06:08:34;;;;;;;12.63;10.02;;;;;;;;;;5094025;28;20079;-78
2023/09/03 06:11:01;;;;;;;11.38;10.02;;;;;;;;;;5075792;28;20135;-78
2023/09/03 06:13:27;;;;;;;11.32;10.15;;;;;;;;;;5091531;28;20044;-78
2023/09/03 06:15:54;;;;;;;12.05;9.80;;;;;;;;;;5092068;28;20036;-77
2023/09/03 06:18:20;;;;;;;11.55;9.15;;;;;;;;;;5090677;28;20090;-78
2023/09/03 06:20:46;;;;;;;10.20;9.07;;;;;;;;;;5075563;28;20044;-78
2023/09/03 06:23:15;;;;;;;11.50;9.48;;;;;;;;;;5091780;28;20147;-78
2023/09/03 06:25:45;;;;;;;9.85;8.85;;;;;;;;;;5092453;28;20059;-78
2023/09/03 06:28:11;;;;;;;12.23;8.90;;;;;;;;;;5074297;28;20032;-79
2023/09/03 06:30:37;;;;;;;10.85;8.93;;;;;;;;;;5091042;28;20074;-76
2023/09/03 06:33:04;;;;;;;10.30;8.90;;;;;;;;;;5093218;28;20077;-76
2023/09/03 06:35:30;;;;;;;10.10;7.90;;;;;;;;;;5092405;28;20123;-76
2023/09/03 06:37:57;;;;;;;10.43;8.35;;;;;;;;;;5092671;28;20043;-75
2023/09/03 06:40:23;;;;;;;8.57;7.65;;;;;;;;;;5093442;28;20397;-76
2023/09/03 06:42:49;;;;;;;8.52;7.55;;;;;;;;;;5088462;28;20451;-76
2023/09/03 06:45:15;;;;;;;8.75;7.25;;;;;;;;;;5089893;28;20426;-76
2023/09/03 06:47:42;;;;;;;9.02;7.88;;;;;;;;;;5080287;28;20048;-76
2023/09/03 06:50:08;;;;;;;9.50;7.13;;;;;;;;;;5092745;28;20044;-76
2023/09/03 06:52:37;;;;;;;8.40;7.28;;;;;;;;;;5092121;28;20044;-76
2023/09/03 06:55:03;;;;;;;9.95;7.32;;;;;;;;;;5091979;28;20078;-76
2023/09/03 06:57:32;;;;;;;9.20;6.60;;;;;;;;;;5091718;28;20496;-76
2023/09/03 06:59:59;;;;;;;7.40;6.35;;;;;;;;;;5092042;28;20512;-76
2023/09/03 07:02:25;;;;;;;8.45;6.35;;;;;;;;;;5092923;28;20103;-74
2023/09/03 07:04:52;;;;;;;7.75;6.60;;;;;;;;;;5091386;28;20036;-75
2023/09/03 07:07:19;;;;;;;6.88;6.18;;;;;;;;;;5091594;28;20059;-75
2023/09/03 07:09:45;;;;;;;8.45;6.15;;;;;;;;;;5090682;28;20069;-76
2023/09/03 07:12:11;;;;;;;7.07;6.30;;;;;;;;;;5091423;28;20058;-75
2023/09/03 07:14:37;;;;;;;9.05;6.47;;;;;;;;;;5074452;28;20081;-75
2023/09/03 07:17:03;;;;;;;6.97;5.60;;;;;;;;;;5091684;28;20047;-79
2023/09/03 07:19:30;;;;;;;8.43;5.85;;;;;;;;;;5074628;28;20040;-79
2023/09/03 07:21:56;;;;;;;7.40;5.28;;;;;;;;;;5074814;28;20051;-79
2023/09/03 07:24:22;;;;;;;8.02;5.07;;;;;;;;;;5091622;28;20119;-79
2023/09/03 07:26:49;;;;;;;6.18;5.22;;;;;;;;;;5090398;28;20048;-78
2023/09/03 07:29:15;;;;;;;7.90;5.28;;;;;;;;;;5090371;28;20044;-78
2023/09/03 07:31:43;;;;;;;6.57;5.30;;;;;;;;;;5092570;28;20054;-78
2023/09/03 07:34:09;;;;;;;7.45;5.25;;;;;;;;;;5090135;28;20044;-78
2023/09/03 07:36:35;;;;;;;9.75;5.20;;;;;;;;;;5072869;28;20044;-78
2023/09/03 07:39:03;;;;;;;6.63;5.22;;;;;;;;;;5090025;28;20060;-79
2023/09/03 07:41:29;;;;;;;7.00;5.45;;;;;;;;;;5091675;28;20398;-78
2023/09/03 07:43:57;;;;;;;7.18;6.10;;;;;;;;;;5090936;28;20055;-77
2023/09/03 07:46:23;;;;;;;6.43;5.40;;;;;;;;;;5091362;28;20396;-80
2023/09/03 07:48:49;;;;;;;6.28;4.90;;;;;;;;;;5088581;28;20071;-79
2023/09/03 07:51:16;;;;;;;7.50;5.20;;;;;;;;;;5088038;28;20400;-79
2023/09/03 07:53:42;;;;;;;6.85;4.85;;;;;;;;;;5088727;28;20036;-79
2023/09/03 07:56:08;;;;;;;6.75;4.72;;;;;;;;;;5091390;28;20052;-78
2023/09/03 07:58:34;;;;;;;8.15;4.55;;;;;;;;;;5091020;28;20451;-80
2023/09/03 08:01:00;;;;;;;6.38;4.18;;;;;;;;;;5091129;28;20067;-78
2023/09/03 08:03:33;;;;;;;5.75;4.20;;;;;;;;;;5086198;28;20047;-79
2023/09/03 08:06:00;;;;;;;7.78;4.80;;;;;;;;;;5090633;28;20208;-79
2023/09/03 08:08:26;;;;;;;8.52;4.00;;;;;;;;;;5091951;28;20060;-79
2023/09/03 08:10:52;;;;;;;8.63;4.55;;;;;;;;;;5090598;28;20044;-79
2023/09/03 08:13:18;;;;;;;5.93;3.45;;;;;;;;;;5091877;28;20040;-81
2023/09/03 08:15:44;;;;;;;5.82;3.70;;;;;;;;;;5090841;28;20439;-78
2023/09/03 08:18:10;;;;;;;4.20;3.33;;;;;;;;;;5101369;28;20062;-79
2023/09/03 08:20:36;;;;;;;5.57;3.30;;;;;;;;;;5110077;28;20044;-78
2023/09/03 08:23:02;;;;;;;4.75;3.58;;;;;;;;;;5094375;28;20032;-78
2023/09/03 08:25:29;;;;;;;6.43;3.40;;;;;;;;;;5077530;28;20039;-79
2023/09/03 08:27:55;;;;;;;6.65;3.40;;;;;;;;;;5093828;28;20089;-81
2023/09/03 08:30:21;;;;;;;4.95;3.00;;;;;;;;;;5099551;28;20044;-80
2023/09/03 08:32:47;;;;;;;4.78;2.90;;;;;;;;;;5104609;28;20048;-79
2023/09/03 08:35:13;;;;;;;4.22;2.53;;;;;;;;;;5078309;28;20036;-80
2023/09/03 08:37:39;;;;;;;4.78;2.45;;;;;;;;;;5082100;28;20048;-81
2023/09/03 08:40:06;;;;;;;5.38;2.63;;;;;;;;;;5057790;28;20127;-80
2023/09/03 08:42:32;;;;;;;5.07;2.45;;;;;;;;;;5074588;28;20094;-79
2023/09/03 08:45:03;;;;;;;5.03;2.50;;;;;;;;;;5092577;28;20080;-80
2023/09/03 08:47:29;;;;;;;4.88;2.58;;;;;;;;;;5077508;28;20043;-79
2023/09/03 08:49:55;;;;;;;4.47;2.22;;;;;;;;;;5096064;28;20066;-80
2023/09/03 08:52:22;;;;;;;4.00;2.35;;;;;;;;;;5096011;28;20048;-80
2023/09/03 08:54:48;;;;;;;4.43;2.42;;;;;;;;;;5093736;28;20460;-81
2023/09/03 08:57:14;;;;;;;4.93;2.60;;;;;;;;;;5093511;28;20051;-80
2023/09/03 08:59:40;;;;;;;5.15;2.30;;;;;;;;;;5076438;28;20044;-81
2023/09/03 09:02:09;;;;;;;5.10;2.58;;;;;;;;;;5094725;28;20582;-81
2023/09/03 09:04:36;;;;;;;6.30;2.55;;;;;;;;;;5094784;28;20108;-81
2023/09/03 09:07:02;;;;;;;4.72;2.30;;;;;;;;;;5077426;28;20047;-80
2023/09/03 09:09:30;;;;;;;5.13;2.63;;;;;;;;;;5092146;28;20092;-78
2023/09/03 09:12:02;;;;;;;4.72;2.67;;;;;;;;;;5092780;28;20127;-79
2023/09/03 09:14:31;;;;;;;6.55;2.80;;;;;;;;;;5092023;28;20500;-78
2023/09/03 09:16:57;;;;;;;5.47;2.65;;;;;;;;;;5094256;28;20397;-78
2023/09/03 09:19:23;;;;;;;5.63;2.40;;;;;;;;;;5076598;28;20048;-79
2023/09/03 09:21:49;;;;;;;5.45;2.33;;;;;;;;;;5077082;28;20051;-79
2023/09/03 09:24:16;;;;;;;5.97;2.47;;;;;;;;;;5093385;28;20048;-77
2023/09/03 09:26:42;;;;;;;5.47;2.10;;;;;;;;;;5090279;28;20040;-78
2023/09/03 09:29:08;;;;;;;5.15;2.28;;;;;;;;;;5089617;28;20048;-78
2023/09/03 09:31:35;;;;;;;5.50;2.40;;;;;;;;;;5089838;28;20342;-79
2023/09/03 09:34:12;;;;;;;5.38;2.17;;;;;;;;;;5089862;28;20044;-79
2023/09/03 09:36:39;;;;;;;4.53;2.30;;;;;;;;;;5056822;28;20394;-79
2023/09/03 09:39:06;;;;;;;4.00;2.05;;;;;;;;;;5072810;28;20041;-80
2023/09/03 09:41:37;;;;;;;3.53;2.00;;;;;;;;;;5074568;28;20091;-79
2023/09/03 09:44:08;;;;;;;6.53;2.88;;;;;;;;;;5073895;28;20610;-79
2023/09/03 09:46:34;;;;;;;7.13;2.53;;;;;;;;;;5074639;28;20095;-79
2023/09/03 09:49:01;;;;;;;4.07;2.55;;;;;;;;;;5072589;28;20044;-78
2023/09/03 09:51:28;;;;;;;5.55;2.63;;;;;;;;;;5073802;28;20053;-78
2023/09/03 09:53:58;;;;;;;4.70;1.98;;;;;;;;;;5072874;28;20068;-78
2023/09/03 09:56:28;;;;;;;3.45;2.00;;;;;;;;;;5071654;28;20052;-78
2023/09/03 09:58:57;;;;;;;3.47;2.00;;;;;;;;;;5088092;28;20052;-78
2023/09/03 10:01:25;;;;;;;3.65;2.38;;;;;;;;;;5088561;28;20059;-78
2023/09/03 10:03:51;;;;;;;5.05;2.10;;;;;;;;;;5073480;28;20507;-79
2023/09/03 10:06:18;;;;;;;3.88;1.70;;;;;;;;;;5073288;28;20041;-80
2023/09/03 10:08:45;;;;;;;3.05;1.75;;;;;;;;;;5072953;28;20128;-80
2023/09/03 10:11:12;;;;;;;3.65;1.80;;;;;;;;;;5073941;28;20131;-80
2023/09/03 10:13:42;;;;;;;3.55;1.70;;;;;;;;;;5073484;28;20044;-79
2023/09/03 10:16:09;;;;;;;2.78;1.60;;;;;;;;;;5074351;28;20535;-80
2023/09/03 10:18:40;;;;;;;2.95;1.50;;;;;;;;;;5073411;28;20044;-80
2023/09/03 10:21:08;;;;;;;3.38;1.80;;;;;;;;;;5055105;28;20124;-79
2023/09/03 10:23:37;;;;;;;3.22;1.70;;;;;;;;;;5055588;28;20109;-79
2023/09/03 10:26:04;;;;;;;2.28;1.48;;;;;;;;;;5073454;28;20132;-80
2023/09/03 10:28:32;;;;;;;3.20;1.50;;;;;;;;;;5073139;28;20040;-79
2023/09/03 10:30:58;;;;;;;2.55;1.45;;;;;;;;;;5093864;28;20144;-80
2023/09/03 10:33:24;;;;;;;2.85;1.35;;;;;;;;;;5088674;28;20036;-80
2023/09/03 10:36:09;;;;;;;2.45;1.38;;;;;;;;;;5055288;28;20068;-79
2023/09/03 10:38:35;;;;;;;2.50;1.50;;;;;;;;;;5072949;28;20153;-79
2023/09/03 10:41:17;;;;;;;3.45;1.58;;;;;;;;;;5070454;28;20089;-79
2023/09/03 10:43:44;;;;;;;2.90;1.60;;;;;;;;;;5072663;28;20127;-79
2023/09/03 10:46:11;;;;;;;2.97;1.58;;;;;;;;;;5073255;28;20040;-79
2023/09/03 10:48:37;;;;;;;3.17;1.45;;;;;;;;;;5072712;28;20048;-79
2023/09/03 10:51:04;;;;;;;3.03;1.40;;;;;;;;;;5072989;28;20048;-79
2023/09/03 10:53:40;;;;;;;4.43;1.40;;;;;;;;;;5072738;28;20400;-79
2023/09/03 10:56:24;;;;;;;2.85;1.33;;;;;;;;;;5071646;28;20154;-79
2023/09/03 10:58:57;;;;;;;3.20;1.50;;;;;;;;;;5072720;28;20083;-79
2023/09/03 11:01:24;;;;;;;2.13;1.38;;;;;;;;;;5072021;28;20401;-79
2023/09/03 11:03:52;;;;;;;3.80;1.42;;;;;;;;;;5054247;28;20499;-80
2023/09/03 11:06:18;;;;;;;6.78;1.50;;;;;;;;;;5072869;28;20052;-79
2023/09/03 11:08:44;;;;;;;2.92;1.50;;;;;;;;;;5071240;28;20061;-79
2023/09/03 11:11:11;;;;;;;3.42;1.40;;;;;;;;;;5070623;28;20060;-80
2023/09/03 11:13:38;;;;;;;2.70;1.38;;;;;;;;;;5070802;28;20047;-79
2023/09/03 11:16:04;;;;;;;2.92;1.67;;;;;;;;;;5081577;28;20051;-79
2023/09/03 11:18:31;;;;;;;3.22;1.58;;;;;;;;;;5089581;28;20036;-80
2023/09/03 11:20:57;;;;;;;5.00;1.83;;;;;;;;;;5091686;28;20040;-80
2023/09/03 11:23:23;;;;;;;2.45;1.45;;;;;;;;;;5091735;28;20105;-80
2023/09/03 11:25:50;;;;;;;4.00;1.50;;;;;;;;;;5090926;28;20365;-80
2023/09/03 11:28:16;;;;;;;2.33;1.58;;;;;;;;;;5090536;28;20479;-81
2023/09/03 11:30:46;;;;;;;3.75;1.55;;;;;;;;;;5091220;28;20074;-80
2023/09/03 11:33:22;;;;;;;5.50;1.73;;;;;;;;;;5091008;28;20439;-80
2023/09/03 11:35:48;;;;;;;2.25;1.40;;;;;;;;;;5088318;28;20056;-77
2023/09/03 11:38:14;;;;;;;2.47;1.50;;;;;;;;;;5068913;28;20121;-78
2023/09/03 11:40:41;;;;;;;3.17;1.52;;;;;;;;;;5082664;28;20493;-78
2023/09/03 11:43:10;;;;;;;3.50;1.50;;;;;;;;;;5083836;28;20113;-78
2023/09/03 11:45:37;;;;;;;2.20;1.42;;;;;;;;;;5084641;28;20508;-78
2023/09/03 11:48:06;;;;;;;2.88;1.40;;;;;;;;;;5067283;28;20316;-78
2023/09/03 11:50:34;;;;;;;3.33;1.30;;;;;;;;;;5070641;28;20458;-78
2023/09/03 11:53:00;;;;;;;2.95;1.30;;;;;;;;;;5093031;28;20112;-77
2023/09/03 11:55:28;;;;;;;2.70;1.30;;;;;;;;;;5074573;28;20040;-78
2023/09/03 11:57:55;;;;;;;2.65;1.25;;;;;;;;;;5090734;28;20052;-78
2023/09/03 12:00:21;;;;;;;2.75;1.40;;;;;;;;;;5076407;28;20080;-78
2023/09/03 12:02:48;;;;;;;1.70;1.13;;;;;;;;;;5076134;28;20052;-77
2023/09/03 12:05:14;;;;;;;3.10;1.30;;;;;;;;;;5076181;28;20581;-77
2023/09/03 12:07:40;;;;;;;2.75;1.40;;;;;;;;;;5074430;28;20076;-77
2023/09/03 12:10:07;;;;;;;2.70;1.38;;;;;;;;;;5076235;28;20049;-77
2023/09/03 12:12:33;;;;;;;3.95;1.20;;;;;;;;;;5095700;28;20044;-78
2023/09/03 12:15:00;;;;;;;2.35;1.20;;;;;;;;;;5095897;28;20118;-77
2023/09/03 12:17:26;;;;;;;2.08;1.40;;;;;;;;;;5095013;28;20105;-77
2023/09/03 12:19:53;;;;;;;2.33;1.20;;;;;;;;;;5078009;28;20079;-77
2023/09/03 12:22:19;;;;;;;2.40;1.30;;;;;;;;;;5096478;28;20075;-77
2023/09/03 12:24:49;;;;;;;2.40;1.50;;;;;;;;;;5094479;28;20040;-78
2023/09/03 12:27:15;;;;;;;2.97;1.60;;;;;;;;;;5092777;28;20438;-77
2023/09/03 12:29:42;;;;;;;3.10;1.50;;;;;;;;;;5091892;28;20044;-78
2023/09/03 12:32:15;;;;;;;3.13;1.50;;;;;;;;;;5092851;28;20052;-78
2023/09/03 12:34:43;;;;;;;2.53;1.38;;;;;;;;;;5090547;28;20131;-79
2023/09/03 12:37:09;;;;;;;3.22;1.33;;;;;;;;;;5092032;28;20051;-78
2023/09/03 12:39:36;;;;;;;3.72;1.60;;;;;;;;;;5092241;28;20390;-78
2023/09/03 12:42:03;;;;;;;3.97;1.70;;;;;;;;;;5091688;28;20052;-78
2023/09/03 12:44:29;;;;;;;2.33;1.38;;;;;;;;;;5092114;28;20055;-78
2023/09/03 12:46:59;;;;;;;3.03;1.40;;;;;;;;;;5092456;28;20043;-78
2023/09/03 12:49:28;;;;;;;3.90;1.70;;;;;;;;;;5091952;28;20497;-78
2023/09/03 12:51:55;;;;;;;3.17;1.70;;;;;;;;;;5091919;28;20112;-77
2023/09/03 12:54:21;;;;;;;3.58;1.40;;;;;;;;;;5093581;28;20159;-78
2023/09/03 12:56:47;;;;;;;3.20;1.50;;;;;;;;;;5095174;28;20039;-78
2023/09/03 12:59:13;;;;;;;2.67;1.38;;;;;;;;;;5094951;28;20047;-78
2023/09/03 13:01:41;;;;;;;2.47;1.27;;;;;;;;;;5094142;28;20051;-77
2023/09/03 13:04:08;;;;;;;4.68;1.60;;;;;;;;;;5093480;28;20051;-77
2023/09/03 13:06:34;;;;;;;2.45;1.40;;;;;;;;;;5093217;28;20040;-77
2023/09/03 13:09:00;;;;;;;3.65;1.58;;;;;;;;;;5094352;28;20411;-79
2023/09/03 13:11:26;;;;;;;3.20;1.48;;;;;;;;;;5093954;28;20051;-79
2023/09/03 13:13:52;;;;;;;2.60;1.55;;;;;;;;;;5094799;28;20123;-79
2023/09/03 13:16:19;;;;;;;2.05;1.30;;;;;;;;;;5093687;28;20040;-78
2023/09/03 13:18:46;;;;;;;3.42;1.80;;;;;;;;;;5092919;28;20125;-79
2023/09/03 13:21:18;;;;;;;2.38;1.40;;;;;;;;;;5093457;28;20040;-79
2023/09/03 13:23:44;;;;;;;2.78;1.50;;;;;;;;;;5094551;28;20048;-80
2023/09/03 13:26:10;;;;;;;2.58;1.40;;;;;;;;;;5094773;28;20072;-79
2023/09/03 13:28:38;;;;;;;2.15;1.30;;;;;;;;;;5093015;28;20052;-78
2023/09/03 13:31:05;;;;;;;2.80;1.38;;;;;;;;;;5092619;28;20040;-78
2023/09/03 13:33:32;;;;;;;2.22;1.40;;;;;;;;;;5094414;28;20048;-78
2023/09/03 13:35:59;;;;;;;2.67;1.30;;;;;;;;;;5093137;28;20123;-78
2023/09/03 13:38:26;;;;;;;2.42;1.30;;;;;;;;;;5094334;28;20047;-78
2023/09/03 13:40:52;;;;;;;3.67;1.60;;;;;;;;;;5088144;28;20178;-80
2023/09/03 13:43:19;;;;;;;3.47;1.60;;;;;;;;;;5076241;28;20401;-76
2023/09/03 13:45:54;;;;;;;3.10;1.40;;;;;;;;;;5093255;28;20072;-76
2023/09/03 13:48:21;;;;;;;3.33;1.65;;;;;;;;;;5092955;28;20040;-75
2023/09/03 13:50:47;;;;;;;2.80;1.38;;;;;;;;;;5083355;28;20671;-76
2023/09/03 13:53:13;;;;;;;2.40;1.40;;;;;;;;;;5083156;28;20044;-75
2023/09/03 13:55:39;;;;;;;2.63;1.40;;;;;;;;;;5073753;28;20511;-76
2023/09/03 13:58:06;;;;;;;2.60;1.40;;;;;;;;;;5081879;28;20044;-75
2023/09/03 14:00:32;;;;;;;3.03;1.42;;;;;;;;;;5077197;28;20133;-75
2023/09/03 14:02:58;;;;;;;3.63;1.58;;;;;;;;;;5092995;28;20063;-75
2023/09/03 14:05:24;;;;;;;3.22;1.58;;;;;;;;;;5074526;28;20390;-76
2023/09/03 14:07:50;;;;;;;3.40;1.40;;;;;;;;;;5078888;28;20123;-76
2023/09/03 14:10:16;;;;;;;2.97;1.35;;;;;;;;;;5071034;28;20052;-75
2023/09/03 14:12:42;;;;;;;4.28;1.40;;;;;;;;;;5082168;28;20120;-76
2023/09/03 14:15:09;;;;;;;3.95;1.90;;;;;;;;;;5072899;28;20469;-75
2023/09/03 14:17:35;;;;;;;3.90;1.50;;;;;;;;;;5073499;28;20503;-75
2023/09/03 14:20:03;;;;;;;2.90;1.40;;;;;;;;;;5077467;28;20044;-75
2023/09/03 14:22:29;;;;;;;2.92;1.38;;;;;;;;;;5077030;28;20051;-76
2023/09/03 14:24:55;;;;;;;2.78;1.45;;;;;;;;;;5078379;28;20037;-77
2023/09/03 14:27:21;;;;;;;2.90;1.50;;;;;;;;;;5087665;28;20119;-76
2023/09/03 14:29:47;;;;;;;3.30;1.55;;;;;;;;;;5087803;28;20393;-76